Time;durP1;ratioP1;P1;durP2;ratioP2;P2;SDS_P1;SDS_P2;PMS_P1;PMS_P2;Temp;Humidity;BMP_temperature;BMP_pressure;BME280_temperature;BME280_humidity;BME280_pressure;Samples;Min_cycle;Max_cycle;Signal;HPM_P1;HPM_P2
2022/09/29 00:01:18;;;;;;;;;15.00;15.00;;;;;11.99;100.00;98184.81;6276757;20;2811825;-47
2022/09/29 00:03:46;;;;;;;;;16.33;15.00;;;;;11.84;100.00;98178.09;6276268;20;3573286;-48
2022/09/29 00:06:18;;;;;;;;;16.00;16.00;;;;;11.88;100.00;98184.09;6309343;20;3555153;-46
2022/09/29 00:08:47;;;;;;;;;17.67;15.33;;;;;11.80;100.00;98187.44;6281306;20;3536839;-47
2022/09/29 00:11:18;;;;;;;;;19.50;17.50;;;;;11.71;100.00;98177.50;6315471;20;2827329;-46
2022/09/29 00:13:47;;;;;;;;;14.00;13.00;;;;;11.79;100.00;98169.59;6283848;20;2804478;-48
2022/09/29 00:16:15;;;;;;;;;14.50;14.50;;;;;11.88;100.00;98174.19;6282944;20;2797280;-48
2022/09/29 00:18:44;;;;;;;;;17.00;15.67;;;;;12.07;100.00;98171.50;6283427;20;2801442;-49
2022/09/29 00:21:18;;;;;;;;;16.00;14.00;;;;;12.18;100.00;98172.34;6315203;20;2802394;-48
2022/09/29 00:23:49;;;;;;;;;11.00;11.00;;;;;11.85;100.00;98163.69;6278132;20;3511801;-46
2022/09/29 00:26:23;;;;;;;;;11.00;11.00;;;;;11.64;100.00;98161.94;6312864;20;2796125;-47
2022/09/29 00:28:58;;;;;;;;;12.50;12.50;;;;;11.74;100.00;98161.09;6286849;20;2786756;-50
2022/09/29 00:31:30;;;;;;;;;9.00;9.00;;;;;11.84;100.00;98161.97;6288364;20;2750776;-48
2022/09/29 00:33:58;;;;;;;;;12.00;12.00;;;;;11.82;100.00;98158.56;6284768;20;2784818;-49
2022/09/29 00:36:30;;;;;;;;;16.00;13.67;;;;;12.06;100.00;98169.81;6279327;20;3530461;-47
2022/09/29 00:38:59;;;;;;;;;21.33;15.67;;;;;11.83;100.00;98160.28;6314991;20;2826473;-51
2022/09/29 00:41:40;;;;;;;;;15.00;15.00;;;;;11.60;100.00;98160.50;6314083;20;2816013;-45
2022/09/29 00:44:12;;;;;;;;;16.67;12.67;;;;;11.67;100.00;98162.66;6282780;20;3516341;-47
2022/09/29 00:47:02;;;;;;;;;11.00;10.50;;;;;11.74;100.00;98161.09;6313168;20;2796219;-45
2022/09/29 00:49:51;;;;;;;;;9.80;9.40;;;;;11.75;100.00;98154.75;6305091;20;2777443;-50
2022/09/29 00:52:39;;;;;;;;;12.00;12.00;;;;;11.59;100.00;98155.28;6281984;20;2797208;-44
2022/09/29 00:55:25;;;;;;;;;14.00;11.00;;;;;11.42;100.00;98156.78;6281142;20;2796249;-46
2022/09/29 00:58:05;;;;;;;;;12.67;12.67;;;;;11.42;100.00;98140.66;6283686;20;2786917;-45
2022/09/29 01:00:33;;;;;;;;;17.50;14.50;;;;;11.36;100.00;98146.59;6310414;20;2820206;-46
2022/09/29 01:03:11;;;;;;;;;12.00;10.67;;;;;11.47;100.00;98143.78;6280567;20;2793093;-46
2022/09/29 01:05:50;;;;;;;;;12.67;11.67;;;;;11.24;100.00;98132.41;6309708;20;2790052;-48
2022/09/29 01:08:38;;;;;;;;;16.00;13.00;;;;;11.45;100.00;98135.00;6311865;20;2679469;-48
2022/09/29 01:11:10;;;;;;;;;14.33;11.00;;;;;11.27;100.00;98128.59;6275094;20;3524317;-45
2022/09/29 01:13:40;;;;;;;;;14.00;10.00;;;;;11.59;100.00;98123.88;6310774;20;2785114;-47
2022/09/29 01:16:09;;;;;;;;;13.20;11.00;;;;;11.83;100.00;98131.53;6300825;20;2784670;-46
2022/09/29 01:18:38;;;;;;;;;11.00;11.00;;;;;11.71;100.00;98135.34;6280408;20;2790924;-49
2022/09/29 01:21:30;;;;;;;;;16.33;15.00;;;;;11.72;100.00;98131.69;6276119;20;3544035;-47
2022/09/29 01:25:10;;;;;;;;;14.00;11.00;;;;;11.60;100.00;98139.00;6313209;20;2789891;-50
2022/09/29 01:28:20;;;;;;;;;20.00;18.50;;;;;11.77;100.00;98142.88;6276190;20;2824308;-46
2022/09/29 01:30:51;;;;;;;;;12.00;12.00;;;;;11.94;100.00;98130.59;6271652;20;2796350;-51
2022/09/29 01:34:20;;;;;;;;;19.50;19.00;;;;;11.70;100.00;98133.66;6306964;20;2839927;-50
2022/09/29 01:37:37;;;;;;;;;16.00;15.00;;;;;12.12;100.00;98132.56;6268629;20;2794084;-46
2022/09/29 01:40:23;;;;;;;;;17.67;16.33;;;;;11.67;100.00;98130.41;6270878;20;2827529;-51
2022/09/29 01:43:08;;;;;;;;;18.00;16.00;;;;;11.54;100.00;98122.59;6304766;20;3547160;-47
2022/09/29 01:46:14;;;;;;;;;18.33;16.00;;;;;11.62;100.00;98131.66;6271718;20;2827399;-48
2022/09/29 01:48:50;;;;;;;;;13.00;13.00;;;;;11.88;100.00;98136.53;6303495;20;3517994;-49
2022/09/29 01:51:31;;;;;;;;;17.67;15.00;;;;;12.04;100.00;98139.50;6304218;20;3544042;-50
2022/09/29 01:54:10;;;;;;;;;17.00;15.67;;;;;12.16;100.00;98142.03;6302321;20;3556579;-48
2022/09/29 01:56:52;;;;;;;;;34.50;29.50;;;;;12.09;100.00;98133.72;6271329;20;2858720;-47
2022/09/29 02:00:18;;;;;;;;;41.00;36.67;;;;;11.78;100.00;98138.34;6272751;20;2858739;-49
2022/09/29 02:03:10;;;;;;;;;23.00;21.00;;;;;11.62;100.00;98134.34;6304791;20;3563785;-46
2022/09/29 02:05:59;;;;;;;;;13.00;11.50;;;;;12.00;100.00;98140.75;6303954;20;2786899;-46
2022/09/29 02:08:48;;;;;;;;;14.00;11.50;;;;;11.93;100.00;98141.47;6278445;20;2796116;-50
2022/09/29 02:11:17;;;;;;;;;14.67;11.67;;;;;11.85;100.00;98139.47;6271445;20;3520144;-46
2022/09/29 02:14:16;;;;;;;;;16.00;16.00;;;;;11.94;100.00;98144.03;6304597;20;2815000;-49
2022/09/29 02:17:18;;;;;;;;;18.00;15.67;;;;;11.81;100.00;98141.59;6270180;20;3554399;-48
2022/09/29 02:19:51;;;;;;;;;15.67;15.67;;;;;11.88;100.00;98141.06;6300382;20;3552360;-47
2022/09/29 02:22:20;;;;;;;;;12.00;11.00;;;;;11.97;100.00;98143.75;6266012;20;2796163;-49
2022/09/29 02:24:54;;;;;;;;;18.50;14.00;;;;;12.07;100.00;98158.06;6305293;20;2824368;-48
2022/09/29 02:27:24;;;;;;;;;16.00;15.67;;;;;12.16;100.00;98156.34;6271368;20;3547936;-49
2022/09/29 02:29:53;;;;;;;;;11.50;11.50;;;;;11.91;100.00;98157.78;6305033;20;2788838;-50
2022/09/29 02:32:23;;;;;;;;;15.00;14.00;;;;;12.03;100.00;98156.66;6296687;20;2806580;-48
2022/09/29 02:34:52;;;;;;;;;13.00;13.00;;;;;11.97;100.00;98150.97;6277790;20;2791955;-46
2022/09/29 02:37:55;;;;;;;;;13.67;13.67;;;;;11.95;100.00;98143.03;6271374;20;2794351;-49
2022/09/29 02:40:56;;;;;;;;;14.00;14.00;;;;;11.86;100.00;98144.72;6299979;20;2788917;-47
2022/09/29 02:44:10;;;;;;;;;16.50;14.50;;;;;11.63;100.00;98149.47;6302964;20;2816041;-49
2022/09/29 02:46:54;;;;;;;;;13.00;13.00;;;;;11.53;100.00;98137.88;6268879;20;3505473;-49
2022/09/29 02:50:06;;;;;;;;;17.67;15.00;;;;;11.92;100.00;98143.31;6302997;20;3529538;-49
2022/09/29 02:53:24;;;;;;;;;17.00;16.00;;;;;11.86;100.00;98139.34;6300290;20;3567040;-47
2022/09/29 02:56:27;;;;;;;;;23.33;17.33;;;;;11.94;100.00;98153.94;6274936;20;2836757;-48
2022/09/29 02:59:23;;;;;;;;;15.00;15.00;;;;;11.77;100.00;98163.50;6303505;20;2808597;-47
2022/09/29 03:01:56;;;;;;;;;21.33;17.67;;;;;11.74;100.00;98169.16;6270951;20;2830512;-47
2022/09/29 03:04:27;;;;;;;;;17.33;15.33;;;;;12.01;100.00;98168.53;6304364;20;3554480;-49
2022/09/29 03:06:56;;;;;;;;;18.67;16.67;;;;;11.93;100.00;98157.59;6269643;20;3544097;-44
2022/09/29 03:09:24;;;;;;;;;19.00;18.00;;;;;11.83;100.00;98160.28;6299806;20;2489992;-46
2022/09/29 03:11:51;;;;;;;;;18.00;18.00;;;;;12.02;100.00;98160.31;6266153;20;2487920;-43
2022/09/29 03:14:20;;;;;;;;;19.00;17.67;;;;;12.08;100.00;98159.78;6275109;20;2834750;-45
2022/09/29 03:16:49;;;;;;;;;18.67;17.67;;;;;12.17;100.00;98168.81;6298901;20;2827370;-45
2022/09/29 03:19:18;;;;;;;;;14.33;13.67;;;;;12.27;100.00;98163.44;6304181;20;3524236;-44
2022/09/29 03:21:47;;;;;;;;;35.00;31.33;;;;;12.24;100.00;98156.50;6304288;20;3606725;-44
2022/09/29 03:24:16;;;;;;;;;16.50;16.50;;;;;12.35;100.00;98158.19;6302050;20;2827383;-45
2022/09/29 03:26:43;;;;;;;;;21.50;21.50;;;;;12.37;100.00;98158.03;6267412;20;2500341;-45
2022/09/29 03:29:11;;;;;;;;;23.50;20.50;;;;;12.36;100.00;98154.50;6265188;20;2498202;-44
2022/09/29 03:31:40;;;;;;;;;16.00;14.33;;;;;12.36;100.00;98149.13;6266800;20;3537985;-45
2022/09/29 03:34:08;;;;;;;;;17.00;14.00;;;;;12.33;100.00;98152.09;6302015;20;2814946;-45
2022/09/29 03:36:36;;;;;;;;;17.50;13.50;;;;;12.18;100.00;98142.75;6266698;20;2494051;-45
2022/09/29 03:39:04;;;;;;;;;14.33;14.33;;;;;12.23;100.00;98137.81;6268773;20;2800385;-46
2022/09/29 03:41:33;;;;;;;;;15.33;14.33;;;;;12.11;100.00;98136.25;6307843;20;2804552;-46
2022/09/29 03:44:02;;;;;;;;;22.33;16.00;;;;;11.92;100.00;98146.00;6311517;20;2836805;-46
2022/09/29 03:46:30;;;;;;;;;14.00;14.00;;;;;11.99;100.00;98144.47;6306878;20;2801397;-45
2022/09/29 03:48:59;;;;;;;;;19.67;18.00;;;;;11.88;100.00;98143.75;6275995;20;2835796;-47
2022/09/29 03:51:27;;;;;;;;;17.50;16.50;;;;;12.01;100.00;98155.94;6305652;20;2500287;-46
2022/09/29 03:53:55;;;;;;;;;20.33;17.67;;;;;12.04;100.00;98160.19;6277352;20;3571073;-46
2022/09/29 03:56:24;;;;;;;;;17.50;16.50;;;;;12.05;100.00;98165.41;6305910;20;2825302;-45
2022/09/29 03:58:52;;;;;;;;;18.00;15.00;;;;;12.19;100.00;98165.97;6282429;20;2806673;-44
2022/09/29 04:01:20;;;;;;;;;16.33;16.33;;;;;12.40;100.00;98158.63;6275356;20;3556650;-46
2022/09/29 04:03:48;;;;;;;;;19.50;18.00;;;;;12.37;100.00;98175.03;6275320;20;2490002;-45
2022/09/29 04:06:16;;;;;;;;;20.00;20.00;;;;;12.41;100.00;98175.59;6271230;20;2496253;-49
2022/09/29 04:08:45;;;;;;;;;28.00;24.00;;;;;12.29;100.00;98164.97;6272756;20;2836716;-45
2022/09/29 04:11:13;;;;;;;;;23.50;21.50;;;;;12.25;100.00;98176.19;6277447;20;2834790;-44
2022/09/29 04:13:42;;;;;;;;;22.00;19.00;;;;;12.33;100.00;98179.00;6276715;20;3557603;-48
2022/09/29 04:16:11;;;;;;;;;28.00;25.00;;;;;12.39;100.00;98164.97;6274444;20;2856628;-45
2022/09/29 04:18:39;;;;;;;;;23.00;21.50;;;;;12.37;100.00;98161.56;6274245;20;2829451;-47
2022/09/29 04:21:10;;;;;;;;;31.33;25.33;;;;;12.41;100.00;98164.84;6276986;20;2865007;-49
2022/09/29 04:23:40;;;;;;;;;26.00;22.00;;;;;12.58;100.00;98165.94;6306832;20;2854453;-48
2022/09/29 04:26:10;;;;;;;;;31.00;29.00;;;;;12.52;100.00;98160.13;6275405;20;2858711;-47
2022/09/29 04:28:39;;;;;;;;;26.67;21.33;;;;;12.69;100.00;98149.59;6308798;20;3590884;-48
2022/09/29 04:31:08;;;;;;;;;29.00;24.67;;;;;12.51;100.00;98144.13;6272112;20;2841957;-48
2022/09/29 04:33:38;;;;;;;;;14.00;13.67;;;;;12.63;100.00;98125.97;6306820;20;3520155;-48
2022/09/29 04:36:07;;;;;;;;;23.00;18.50;;;;;12.61;100.00;98127.94;6306776;20;2857573;-47
2022/09/29 04:38:35;;;;;;;;;25.50;22.00;;;;;12.29;100.00;98123.75;6273153;20;2833651;-49
2022/09/29 04:41:04;;;;;;;;;21.00;19.50;;;;;12.37;100.00;98121.19;6269382;20;2842037;-51
2022/09/29 04:43:33;;;;;;;;;25.00;22.00;;;;;12.51;100.00;98117.22;6276097;20;2848407;-44
2022/09/29 04:46:07;;;;;;;;;21.50;18.50;;;;;12.58;100.00;98112.94;6274789;20;2832620;-45
2022/09/29 04:48:36;;;;;;;;;23.00;23.00;;;;;12.34;100.00;98116.09;6274059;20;2852362;-46
2022/09/29 04:51:05;;;;;;;;;24.00;20.00;;;;;12.58;100.00;98122.84;6272320;20;2500326;-46
2022/09/29 04:53:35;;;;;;;;;21.00;19.33;;;;;12.70;100.00;98138.69;6274267;20;3546068;-48
2022/09/29 04:56:08;;;;;;;;;19.00;18.00;;;;;12.69;100.00;98136.13;6275521;20;2830488;-49
2022/09/29 04:58:37;;;;;;;;;26.00;21.50;;;;;12.38;100.00;98138.22;6309885;20;2845076;-47
2022/09/29 05:01:12;;;;;;;;;24.00;21.50;;;;;12.49;100.00;98136.19;6273969;20;2837811;-46
2022/09/29 05:03:41;;;;;;;;;25.50;24.00;;;;;12.46;100.00;98131.09;6277306;20;2849397;-45
2022/09/29 05:06:10;;;;;;;;;21.50;21.50;;;;;12.63;100.00;98132.19;6272279;20;2842633;-46
2022/09/29 05:08:39;;;;;;;;;32.67;27.00;;;;;12.48;100.00;98134.50;6278080;20;3614846;-46
2022/09/29 05:11:10;;;;;;;;;39.00;29.67;;;;;12.49;100.00;98135.34;6273547;20;3620022;-51
2022/09/29 05:13:38;;;;;;;;;32.33;29.33;;;;;12.54;100.00;98133.06;6310016;20;3602492;-47
2022/09/29 05:16:07;;;;;;;;;27.33;24.67;;;;;12.58;100.00;98141.69;6274638;20;3594006;-47
2022/09/29 05:18:37;;;;;;;;;29.00;28.00;;;;;12.58;100.00;98144.41;6272286;20;2867133;-46
2022/09/29 05:21:08;;;;;;;;;32.00;29.67;;;;;12.45;100.00;98144.69;6306235;20;3612831;-47
2022/09/29 05:23:56;;;;;;;;;51.00;37.67;;;;;12.51;100.00;98141.44;6277805;20;3618986;-48
2022/09/29 05:26:25;;;;;;;;;41.67;37.00;;;;;12.73;100.00;98138.41;6275908;20;3591891;-47
2022/09/29 05:28:54;;;;;;;;;31.33;28.00;;;;;12.71;100.00;98140.38;6272788;20;3611174;-47
2022/09/29 05:31:23;;;;;;;;;26.00;22.00;;;;;12.81;100.00;98140.38;6305899;20;3572526;-45
2022/09/29 05:33:56;;;;;;;;;29.00;22.00;;;;;12.84;100.00;98139.22;6268908;20;2851405;-45
2022/09/29 05:36:25;;;;;;;;;21.00;21.00;;;;;12.72;100.00;98144.78;6270427;20;2843995;-46
2022/09/29 05:38:55;;;;;;;;;19.00;18.00;;;;;12.82;100.00;98138.50;6269629;20;2835812;-47
2022/09/29 05:41:23;;;;;;;;;23.50;22.50;;;;;12.78;100.00;98137.97;6274421;20;2839277;-51
2022/09/29 05:43:54;;;;;;;;;26.50;24.00;;;;;12.85;100.00;98136.41;6271639;20;2835984;-48
2022/09/29 05:46:23;;;;;;;;;26.00;23.00;;;;;12.72;100.00;98130.47;6273911;20;2847258;-46
2022/09/29 05:48:51;;;;;;;;;22.00;21.00;;;;;12.84;100.00;98123.91;6276266;20;2850339;-59
2022/09/29 05:51:23;;;;;;;;;30.00;25.00;;;;;12.98;100.00;98113.63;6274993;20;2837899;-58
2022/09/29 05:53:53;;;;;;;;;28.00;25.50;;;;;12.91;100.00;98108.84;6269559;20;2842071;-58
2022/09/29 05:56:25;;;;;;;;;18.00;18.00;;;;;12.99;100.00;98126.13;6271314;20;2837933;-57
2022/09/29 05:58:55;;;;;;;;;21.00;21.00;;;;;13.00;100.00;98123.28;6272416;20;2832566;-57
2022/09/29 06:01:26;;;;;;;;;25.00;21.50;;;;;12.99;100.00;98131.53;6272423;20;2833781;-58
2022/09/29 06:03:56;;;;;;;;;28.00;28.00;;;;;12.88;100.00;98133.41;6275056;20;2853439;-57
2022/09/29 06:06:27;;;;;;;;;25.50;24.00;;;;;12.89;100.00;98132.41;6305892;20;2842964;-57
2022/09/29 06:08:58;;;;;;;;;27.50;26.00;;;;;12.89;100.00;98124.31;6272765;20;2854548;-58
2022/09/29 06:11:32;;;;;;;;;24.50;24.00;;;;;12.93;100.00;98128.41;6274110;20;2842992;-58
2022/09/29 06:14:02;;;;;;;;;28.00;25.00;;;;;12.89;100.00;98127.00;6265234;20;2854581;-56
2022/09/29 06:16:33;;;;;;;;;27.50;25.00;;;;;12.84;100.00;98131.97;6270015;20;2846167;-58
2022/09/29 06:19:03;;;;;;;;;26.67;25.00;;;;;12.83;100.00;98142.91;6276879;20;2845238;-58
2022/09/29 06:21:34;;;;;;;;;26.67;26.67;;;;;12.97;100.00;98150.53;6307225;20;3587801;-57
2022/09/29 06:24:06;;;;;;;;;30.00;28.67;;;;;12.85;100.00;98149.88;6271415;20;3604505;-57
2022/09/29 06:26:34;;;;;;;;;46.00;37.00;;;;;12.84;100.00;98147.31;6307349;20;3586687;-58
2022/09/29 06:29:04;;;;;;;;;47.33;37.00;;;;;12.88;100.00;98146.03;6275357;20;3604548;-57
2022/09/29 06:31:32;;;;;;;;;49.50;38.00;;;;;13.03;100.00;98151.78;6271966;20;2861922;-59
2022/09/29 06:34:04;;;;;;;;;40.33;34.67;;;;;12.98;100.00;98156.75;6276747;20;3609697;-59
2022/09/29 06:39:31;;;;;;;;;34.00;29.00;;;;;13.18;100.00;98158.38;6305091;20;3612770;-59
2022/09/29 06:41:59;;;;;;;;;29.00;25.67;;;;;13.32;100.00;98149.84;6277992;20;3583553;-59
2022/09/29 06:44:29;;;;;;;;;26.50;26.00;;;;;13.38;100.00;98151.94;6272181;20;2845205;-59
2022/09/29 06:46:59;;;;;;;;;34.67;29.67;;;;;13.47;100.00;98157.41;6270963;20;3586706;-55
2022/09/29 06:49:29;;;;;;;;;62.75;47.75;;;;;13.29;100.00;98155.50;6307903;20;3631613;-60
2022/09/29 06:51:58;;;;;;;;;71.00;55.00;;;;;13.42;100.00;98148.94;6306113;20;3623212;-59
2022/09/29 06:54:33;;;;;;;;;69.00;53.33;;;;;13.56;100.00;98154.69;6306229;20;3625355;-59
2022/09/29 06:57:02;;;;;;;;;66.33;51.00;;;;;13.58;100.00;98154.50;6269253;20;3632572;-49
2022/09/29 06:59:31;;;;;;;;;40.00;34.67;;;;;13.60;100.00;98155.22;6310245;20;3587878;-48
2022/09/29 07:02:01;;;;;;;;;31.33;28.67;;;;;13.57;100.00;98158.22;6267886;20;2847210;-49
2022/09/29 07:04:29;;;;;;;;;34.00;29.33;;;;;13.60;100.00;98152.50;6309784;20;3600228;-47
2022/09/29 07:06:58;;;;;;;;;35.00;32.67;;;;;13.61;100.00;98154.19;6270057;20;3575271;-46
2022/09/29 07:09:27;;;;;;;;;39.33;33.67;;;;;13.91;100.00;98161.13;6272759;20;3579434;-44
2022/09/29 07:11:55;;;;;;;;;41.67;35.00;;;;;13.90;100.00;98159.44;6269376;20;3595022;-45
2022/09/29 07:14:24;;;;;;;;;30.00;30.00;;;;;14.03;100.00;98161.72;6272542;20;3596111;-47
2022/09/29 07:16:54;;;;;;;;;29.00;27.67;;;;;13.99;100.00;98168.44;6270189;20;2853574;-47
2022/09/29 07:19:23;;;;;;;;;25.33;24.33;;;;;14.03;100.00;98167.13;6308489;20;3598234;-48
2022/09/29 07:21:52;;;;;;;;;27.67;25.67;;;;;14.05;100.00;98167.81;6273750;20;3594032;-49
2022/09/29 07:24:23;;;;;;;;;27.00;26.00;;;;;13.90;100.00;98177.44;6276085;20;2848235;-45
2022/09/29 07:26:53;;;;;;;;;43.25;27.75;;;;;13.88;100.00;98185.72;6300937;20;3631621;-48
2022/09/29 07:29:21;;;;;;;;;28.00;19.00;;;;;13.92;100.00;98186.25;6303132;20;2483648;-50
2022/09/29 07:31:51;;;;;;;;;23.50;22.00;;;;;13.99;100.00;98190.88;6271197;20;2846102;-47
2022/09/29 07:34:20;;;;;;;;;25.50;24.00;;;;;14.15;100.00;98192.88;6273566;20;2833621;-47
2022/09/29 07:36:50;;;;;;;;;22.50;22.00;;;;;14.20;100.00;98193.28;6264570;20;2843986;-47
2022/09/29 07:39:21;;;;;;;;;31.00;28.33;;;;;14.14;100.00;98203.81;6273833;20;3607516;-46
2022/09/29 07:41:50;;;;;;;;;47.00;34.33;;;;;14.09;100.00;98201.59;6309509;20;3610657;-49
2022/09/29 07:44:20;;;;;;;;;49.33;35.00;;;;;14.10;100.00;98206.00;6272000;20;3607586;-48
2022/09/29 07:46:49;;;;;;;;;35.50;24.50;;;;;14.19;100.00;98212.31;6304133;20;3495007;-48
2022/09/29 07:49:18;;;;;;;;;32.67;28.33;;;;;14.11;100.00;98207.69;6304030;20;3605453;-48
2022/09/29 07:51:47;;;;;;;;;36.33;30.00;;;;;14.20;100.00;98208.63;6274501;20;3591923;-48
2022/09/29 07:54:16;;;;;;;;;26.33;26.33;;;;;14.18;100.00;98226.81;6270330;20;3599239;-48
2022/09/29 07:56:45;;;;;;;;;28.00;26.00;;;;;14.28;100.00;98222.19;6272573;20;3598806;-46
2022/09/29 07:59:13;;;;;;;;;30.00;29.00;;;;;14.32;100.00;98222.72;6273069;20;3600287;-48
2022/09/29 08:01:42;;;;;;;;;32.00;31.33;;;;;14.26;100.00;98230.44;6274538;20;3582575;-47
2022/09/29 08:04:11;;;;;;;;;33.33;32.33;;;;;14.24;100.00;98239.69;6271022;20;2852470;-49
2022/09/29 08:06:41;;;;;;;;;47.33;34.67;;;;;14.18;100.00;98235.75;6306941;20;3609800;-46
2022/09/29 08:09:10;;;;;;;;;48.33;38.67;;;;;14.17;100.00;98247.56;6270693;20;2853464;-52
2022/09/29 08:11:42;;;;;;;;;37.00;31.00;;;;;14.16;100.00;98251.25;6305031;20;3594008;-48
2022/09/29 08:14:11;;;;;;;;;37.00;32.00;;;;;14.21;100.00;98257.03;6268305;20;2847153;-49
2022/09/29 08:16:40;;;;;;;;;31.00;28.33;;;;;14.19;100.00;98261.78;6299271;20;3606647;-47
2022/09/29 08:19:09;;;;;;;;;42.00;34.00;;;;;14.14;100.00;98258.69;6270843;20;2849268;-48
2022/09/29 08:21:38;;;;;;;;;33.33;29.00;;;;;14.26;100.00;98270.09;6269789;20;3570050;-47
2022/09/29 08:24:07;;;;;;;;;31.67;29.67;;;;;14.35;100.00;98265.63;6303149;20;3599252;-48
2022/09/29 08:26:37;;;;;;;;;37.67;33.00;;;;;14.43;100.00;98263.03;6279696;20;3583596;-49
2022/09/29 08:29:13;;;;;;;;;36.50;33.00;;;;;14.52;100.00;98267.50;6273830;20;2856647;-47
2022/09/29 08:31:46;;;;;;;;;37.33;33.33;;;;;14.49;100.00;98268.66;6277800;20;2855452;-46
2022/09/29 08:34:15;;;;;;;;;33.67;32.00;;;;;14.53;100.00;98266.50;6311169;20;3590928;-47
2022/09/29 08:36:45;;;;;;;;;49.00;40.00;;;;;14.56;100.00;98268.91;6276228;20;3617999;-47
2022/09/29 08:39:14;;;;;;;;;47.33;36.00;;;;;14.56;100.00;98260.81;6309021;20;3595127;-47
2022/09/29 08:42:22;;;;;;;;;47.00;37.33;;;;;14.59;100.00;98265.91;6276912;20;3601357;-49
2022/09/29 08:45:03;;;;;;;;;33.00;28.33;;;;;14.64;100.00;98266.28;6310973;20;3610844;-45
2022/09/29 08:47:48;;;;;;;;;30.67;28.67;;;;;14.55;100.00;98267.22;6279467;20;3606535;-50
2022/09/29 08:50:41;;;;;;;;;31.00;29.33;;;;;14.77;100.00;98273.13;6274993;20;3607536;-48
2022/09/29 08:53:16;;;;;;;;;22.33;20.33;;;;;14.91;100.00;98267.19;6273282;20;3581625;-50
2022/09/29 08:56:01;;;;;;;;;20.50;18.00;;;;;14.91;100.00;98267.19;6271422;20;2494060;-46
2022/09/29 08:58:31;;;;;;;;;18.50;17.50;;;;;15.05;100.00;98277.41;6276726;20;2491948;-48
2022/09/29 09:01:21;;;;;;;;;21.00;19.50;;;;;14.92;100.00;98263.47;6273725;20;2839856;-48
2022/09/29 09:04:43;;;;;;;;;21.00;21.00;;;;;15.55;100.00;98259.66;6274925;20;2838991;-48
2022/09/29 09:07:59;;;;;;;;;14.33;13.33;;;;;16.06;100.00;98259.72;6272135;20;3526480;-48
2022/09/29 09:11:14;;;;;;;;;14.00;14.00;;;;;16.42;100.00;98261.16;6307764;20;2788818;-49
2022/09/29 09:14:16;;;;;;;;;13.67;13.00;;;;;17.19;100.00;98265.44;6272037;20;3539870;-46
2022/09/29 09:17:21;;;;;;;;;10.00;8.00;;;;;16.36;100.00;98264.53;6273363;20;2759664;-47
2022/09/29 09:20:28;;;;;;;;;17.00;16.00;;;;;16.44;100.00;98269.97;6277849;20;3556472;-50
2022/09/29 09:23:32;;;;;;;;;16.67;15.33;;;;;17.09;100.00;98276.50;6275100;20;3551316;-50
2022/09/29 09:26:03;;;;;;;;;10.60;10.60;;;;;16.72;100.00;98275.09;6298840;20;2773314;-51
2022/09/29 09:29:41;;;;;;;;;11.00;11.00;;;;;17.16;100.00;98272.06;6274494;20;3514963;-52
2022/09/29 09:32:21;;;;;;;;;13.00;10.33;;;;;16.98;99.99;98279.53;6312335;20;3519072;-50
2022/09/29 09:35:38;;;;;;;;;14.33;13.67;;;;;16.80;100.00;98275.13;6309912;20;3543136;-49
2022/09/29 09:38:47;;;;;;;;;17.00;14.00;;;;;16.62;100.00;98274.41;6279489;20;2485669;-48
2022/09/29 09:41:21;;;;;;;;;14.00;14.00;;;;;16.62;100.00;98277.13;6281066;20;2496134;-47
2022/09/29 09:44:12;;;;;;;;;18.00;17.00;;;;;16.64;100.00;98281.38;6283855;20;2834633;-49
2022/09/29 09:47:09;;;;;;;;;21.50;17.00;;;;;16.46;100.00;98297.75;6279152;20;2835702;-46
2022/09/29 09:49:50;;;;;;;;;17.50;17.50;;;;;16.50;100.00;98295.56;6277771;20;2831544;-49
2022/09/29 09:52:48;;;;;;;;;20.00;18.50;;;;;16.87;100.00;98305.13;6284111;20;2835675;-48
2022/09/29 09:55:25;;;;;;;;;23.50;20.50;;;;;16.81;100.00;98305.81;6280215;20;2841968;-47
2022/09/29 09:58:36;;;;;;;;;19.00;16.33;;;;;16.26;100.00;98312.59;6282120;20;2839999;-48
2022/09/29 10:01:09;;;;;;;;;22.33;21.00;;;;;16.30;100.00;98313.09;6313343;20;3564985;-50
2022/09/29 10:03:38;;;;;;;;;18.50;18.00;;;;;16.44;100.00;98317.91;6279026;20;2835717;-51
2022/09/29 10:06:08;;;;;;;;;26.00;21.00;;;;;17.11;100.00;98315.13;6281029;20;2839900;-47
2022/09/29 10:08:41;;;;;;;;;22.33;19.67;;;;;17.28;99.33;98316.81;6281742;20;3592057;-49
2022/09/29 10:11:22;;;;;;;;;18.00;18.00;;;;;17.22;100.00;98320.22;6315048;20;3572115;-48
2022/09/29 10:14:20;;;;;;;;;17.67;17.67;;;;;17.03;100.00;98315.13;6282544;20;3573233;-47
2022/09/29 10:17:05;;;;;;;;;23.33;22.67;;;;;16.40;100.00;98303.84;6275860;20;3578419;-47
2022/09/29 10:20:04;;;;;;;;;22.67;21.33;;;;;16.60;100.00;98314.38;6282768;20;3569111;-46
2022/09/29 10:22:34;;;;;;;;;21.00;19.00;;;;;16.83;100.00;98304.63;6312020;20;2827846;-47
2022/09/29 10:25:17;;;;;;;;;22.67;21.67;;;;;17.05;100.00;98313.09;6281591;20;3578411;-47
2022/09/29 10:27:51;;;;;;;;;22.33;21.33;;;;;17.06;98.91;98309.34;6285736;20;3560726;-47
2022/09/29 10:30:34;;;;;;;;;24.00;23.00;;;;;17.10;100.00;98318.84;6313406;20;3523322;-49
2022/09/29 10:33:07;;;;;;;;;20.50;20.50;;;;;16.83;99.95;98317.34;6314221;20;2822382;-49
2022/09/29 10:35:41;;;;;;;;;21.00;20.00;;;;;16.82;100.00;98330.00;6278991;20;2842968;-47
2022/09/29 10:38:25;;;;;;;;;18.50;18.50;;;;;16.65;100.00;98325.56;6280583;20;2835712;-49
2022/09/29 10:41:08;;;;;;;;;21.33;20.33;;;;;16.54;100.00;98321.31;6285147;20;3574313;-47
2022/09/29 10:43:42;;;;;;;;;15.67;15.67;;;;;16.33;100.00;98329.06;6279163;20;3535670;-50
2022/09/29 10:46:54;;;;;;;;;20.67;19.33;;;;;16.57;100.00;98336.38;6271033;20;2500300;-48
2022/09/29 10:52:28;;;;;;;;;23.00;23.00;;;;;17.61;98.10;98351.19;6266635;20;2832593;-46
2022/09/29 10:55:05;;;;;;;;;24.33;23.00;;;;;18.35;93.74;98365.44;6285892;20;3585676;-49
2022/09/29 10:57:36;;;;;;;;;19.00;18.00;;;;;18.55;90.93;98360.41;6280761;20;2833666;-51
2022/09/29 11:00:06;;;;;;;;;22.67;21.67;;;;;18.67;90.48;98353.56;6312183;20;3574440;-48
2022/09/29 11:02:42;;;;;;;;;20.00;17.00;;;;;18.23;89.70;98356.00;6280553;20;3575312;-48
2022/09/29 11:05:24;;;;;;;;;18.00;17.00;;;;;18.65;88.73;98352.88;6279767;20;2830632;-47
2022/09/29 11:07:53;;;;;;;;;20.50;19.00;;;;;18.33;89.87;98351.19;6279583;20;2833654;-49
2022/09/29 11:10:38;;;;;;;;;16.00;16.00;;;;;17.95;90.24;98359.13;6282195;20;2830589;-47
2022/09/29 11:13:19;;;;;;;;;17.00;17.00;;;;;17.74;91.25;98352.34;6275838;20;2827390;-49
2022/09/29 11:15:49;;;;;;;;;18.00;16.33;;;;;17.60;91.88;98355.78;6279227;20;3557539;-48
2022/09/29 11:18:35;;;;;;;;;19.50;19.50;;;;;17.48;93.29;98362.56;6281244;20;2837792;-46
2022/09/29 11:21:30;;;;;;;;;18.50;16.50;;;;;17.45;92.39;98358.34;6276486;20;2831700;-48
2022/09/29 11:24:50;;;;;;;;;14.67;14.67;;;;;17.84;91.55;98345.94;6281821;20;3540352;-46
2022/09/29 11:28:23;;;;;;;;;14.00;13.67;;;;;18.21;88.61;98354.28;6279841;20;3523224;-50
2022/09/29 11:31:19;;;;;;;;;18.00;14.00;;;;;18.04;88.07;98347.22;6275854;20;3541091;-48
2022/09/29 11:34:26;;;;;;;;;15.50;13.50;;;;;18.55;89.13;98350.38;6277135;20;2487781;-47
2022/09/29 11:37:24;;;;;;;;;12.33;12.33;;;;;19.25;84.81;98352.16;6279439;20;3531530;-51
2022/09/29 11:40:09;;;;;;;;;17.33;12.67;;;;;19.63;83.53;98343.13;6278800;20;3541923;-48
2022/09/29 11:43:05;;;;;;;;;14.67;14.67;;;;;19.62;82.86;98336.00;6316055;20;3542066;-59
2022/09/29 11:45:55;;;;;;;;;14.33;14.33;;;;;19.12;84.27;98341.06;6310296;20;2491972;-59
2022/09/29 11:49:17;;;;;;;;;13.00;13.00;;;;;19.11;85.26;98338.50;6308543;20;3514046;-59